sensor_id;sensor_type;location;lat;lon;timestamp;temperature;humidity
61255;DHT22;47128;47.530;8.584;2022-12-05T00:01:55;3.70;99.90
61255;DHT22;47128;47.530;8.584;2022-12-05T00:04:21;3.70;99.90
61255;DHT22;47128;47.530;8.584;2022-12-05T00:06:46;3.70;99.90
61255;DHT22;47128;47.530;8.584;2022-12-05T00:09:12;3.80;99.90
61255;DHT22;47128;47.530;8.584;2022-12-05T00:11:38;3.80;99.90
61255;DHT22;47128;47.530;8.584;2022-12-05T00:14:05;3.80;99.90
61255;DHT22;47128;47.530;8.584;2022-12-05T00:16:31;3.80;99.90
61255;DHT22;47128;47.530;8.584;2022-12-05T00:19:00;3.90;99.90
61255;DHT22;47128;47.530;8.584;2022-12-05T00:21:26;3.80;99.90
61255;DHT22;47128;47.530;8.584;2022-12-05T00:23:52;3.80;99.90
61255;DHT22;47128;47.530;8.584;2022-12-05T00:26:18;3.80;99.90
61255;DHT22;47128;47.530;8.584;2022-12-05T00:28:44;3.80;99.90
61255;DHT22;47128;47.530;8.584;2022-12-05T00:31:11;3.70;99.90
61255;DHT22;47128;47.530;8.584;2022-12-05T00:33:37;3.80;99.90
61255;DHT22;47128;47.530;8.584;2022-12-05T00:36:03;3.80;99.90
61255;DHT22;47128;47.530;8.584;2022-12-05T00:38:29;3.80;99.90
61255;DHT22;47128;47.530;8.584;2022-12-05T00:40:55;3.80;99.90
61255;DHT22;47128;47.530;8.584;2022-12-05T00:43:20;3.90;99.90
61255;DHT22;47128;47.530;8.584;2022-12-05T00:45:46;3.90;99.90
61255;DHT22;47128;47.530;8.584;2022-12-05T00:48:11;3.90;99.90
61255;DHT22;47128;47.530;8.584;2022-12-05T00:50:37;4.00;99.90
61255;DHT22;47128;47.530;8.584;2022-12-05T00:53:02;3.90;99.90
61255;DHT22;47128;47.530;8.584;2022-12-05T00:55:27;4.00;99.90
61255;DHT22;47128;47.530;8.584;2022-12-05T00:57:53;4.00;99.90
61255;DHT22;47128;47.530;8.584;2022-12-05T01:00:18;4.00;99.90
61255;DHT22;47128;47.530;8.584;2022-12-05T01:02:44;4.00;99.90
61255;DHT22;47128;47.530;8.584;2022-12-05T01:05:09;4.00;99.90
61255;DHT22;47128;47.530;8.584;2022-12-05T01:07:35;4.00;99.90
61255;DHT22;47128;47.530;8.584;2022-12-05T01:10:00;4.00;99.90
61255;DHT22;47128;47.530;8.584;2022-12-05T01:12:26;4.20;99.90
61255;DHT22;47128;47.530;8.584;2022-12-05T01:14:52;4.20;99.90
61255;DHT22;47128;47.530;8.584;2022-12-05T01:17:17;4.20;99.90
61255;DHT22;47128;47.530;8.584;2022-12-05T01:19:43;4.20;99.90
61255;DHT22;47128;47.530;8.584;2022-12-05T01:22:08;4.20;99.90
61255;DHT22;47128;47.530;8.584;2022-12-05T01:24:34;4.20;99.90
61255;DHT22;47128;47.530;8.584;2022-12-05T01:27:00;4.20;99.90
61255;DHT22;47128;47.530;8.584;2022-12-05T01:29:25;4.20;99.90
61255;DHT22;47128;47.530;8.584;2022-12-05T01:31:51;4.20;99.90
61255;DHT22;47128;47.530;8.584;2022-12-05T01:34:16;4.20;99.90
61255;DHT22;47128;47.530;8.584;2022-12-05T01:36:42;4.20;99.90
61255;DHT22;47128;47.530;8.584;2022-12-05T01:39:08;4.20;99.90
61255;DHT22;47128;47.530;8.584;2022-12-05T01:41:35;4.20;99.90
61255;DHT22;47128;47.530;8.584;2022-12-05T01:44:02;4.20;99.90
61255;DHT22;47128;47.530;8.584;2022-12-05T01:46:29;4.20;99.90
61255;DHT22;47128;47.530;8.584;2022-12-05T01:49:14;4.20;99.90
61255;DHT22;47128;47.530;8.584;2022-12-05T01:51:42;4.20;99.90
61255;DHT22;47128;47.530;8.584;2022-12-05T01:54:09;4.20;99.90
61255;DHT22;47128;47.530;8.584;2022-12-05T01:56:36;4.30;99.90
61255;DHT22;47128;47.530;8.584;2022-12-05T01:59:02;4.30;99.90
61255;DHT22;47128;47.530;8.584;2022-12-05T02:01:28;4.30;99.90
61255;DHT22;47128;47.530;8.584;2022-12-05T02:03:54;4.30;99.90
61255;DHT22;47128;47.530;8.584;2022-12-05T02:06:21;4.30;99.90
61255;DHT22;47128;47.530;8.584;2022-12-05T02:08:47;4.30;99.90
61255;DHT22;47128;47.530;8.584;2022-12-05T02:11:13;4.30;99.90
61255;DHT22;47128;47.530;8.584;2022-12-05T02:13:49;4.30;99.90
61255;DHT22;47128;47.530;8.584;2022-12-05T02:16:22;4.30;99.90
61255;DHT22;47128;47.530;8.584;2022-12-05T02:21:34;4.30;99.90
61255;DHT22;47128;47.530;8.584;2022-12-05T02:32:15;4.30;99.90
61255;DHT22;47128;47.530;8.584;2022-12-05T02:34:46;4.30;99.90
61255;DHT22;47128;47.530;8.584;2022-12-05T02:37:17;4.30;99.90
61255;DHT22;47128;47.530;8.584;2022-12-05T02:39:48;4.20;99.90
61255;DHT22;47128;47.530;8.584;2022-12-05T02:42:27;4.20;99.90
61255;DHT22;47128;47.530;8.584;2022-12-05T02:45:04;4.30;99.90
61255;DHT22;47128;47.530;8.584;2022-12-05T02:47:37;4.20;99.90
61255;DHT22;47128;47.530;8.584;2022-12-05T02:50:05;4.20;99.90
61255;DHT22;47128;47.530;8.584;2022-12-05T02:52:31;4.20;99.90
61255;DHT22;47128;47.530;8.584;2022-12-05T02:54:57;4.30;99.90
61255;DHT22;47128;47.530;8.584;2022-12-05T02:57:24;4.30;99.90
61255;DHT22;47128;47.530;8.584;2022-12-05T02:59:49;4.30;99.90
61255;DHT22;47128;47.530;8.584;2022-12-05T03:02:26;4.30;99.90
61255;DHT22;47128;47.530;8.584;2022-12-05T03:04:52;4.30;99.90
61255;DHT22;47128;47.530;8.584;2022-12-05T03:07:20;4.30;99.90
61255;DHT22;47128;47.530;8.584;2022-12-05T03:09:48;4.40;99.90
61255;DHT22;47128;47.530;8.584;2022-12-05T03:12:23;4.40;99.90
61255;DHT22;47128;47.530;8.584;2022-12-05T03:14:51;4.40;99.90
61255;DHT22;47128;47.530;8.584;2022-12-05T03:17:22;4.40;99.90
61255;DHT22;47128;47.530;8.584;2022-12-05T03:24:49;4.40;99.90
61255;DHT22;47128;47.530;8.584;2022-12-05T03:28:01;4.50;99.90
61255;DHT22;47128;47.530;8.584;2022-12-05T03:30:02;4.50;99.90
61255;DHT22;47128;47.530;8.584;2022-12-05T03:32:40;4.50;99.90
61255;DHT22;47128;47.530;8.584;2022-12-05T03:42:59;4.50;99.90
61255;DHT22;47128;47.530;8.584;2022-12-05T03:45:29;4.60;99.90
61255;DHT22;47128;47.530;8.584;2022-12-05T03:47:59;4.50;99.90
61255;DHT22;47128;47.530;8.584;2022-12-05T03:50:27;4.50;99.90
61255;DHT22;47128;47.530;8.584;2022-12-05T03:55:22;4.50;99.90
61255;DHT22;47128;47.530;8.584;2022-12-05T03:57:53;4.50;99.90
61255;DHT22;47128;47.530;8.584;2022-12-05T04:00:20;4.50;99.90
61255;DHT22;47128;47.530;8.584;2022-12-05T04:02:54;4.50;99.90
61255;DHT22;47128;47.530;8.584;2022-12-05T04:05:34;4.60;99.90
61255;DHT22;47128;47.530;8.584;2022-12-05T04:08:02;4.60;99.90
61255;DHT22;47128;47.530;8.584;2022-12-05T04:10:30;4.60;99.90
61255;DHT22;47128;47.530;8.584;2022-12-05T04:12:57;4.50;99.90
61255;DHT22;47128;47.530;8.584;2022-12-05T04:15:41;4.50;99.90
61255;DHT22;47128;47.530;8.584;2022-12-05T04:18:28;4.50;99.90
61255;DHT22;47128;47.530;8.584;2022-12-05T04:20:54;4.50;99.90
61255;DHT22;47128;47.530;8.584;2022-12-05T04:23:38;4.50;99.90
61255;DHT22;47128;47.530;8.584;2022-12-05T04:26:12;4.50;99.90
61255;DHT22;47128;47.530;8.584;2022-12-05T04:28:45;4.50;99.90
61255;DHT22;47128;47.530;8.584;2022-12-05T04:31:15;4.50;99.90
61255;DHT22;47128;47.530;8.584;2022-12-05T04:33:43;4.50;99.90
61255;DHT22;47128;47.530;8.584;2022-12-05T04:38:38;4.50;99.90
61255;DHT22;47128;47.530;8.584;2022-12-05T04:41:06;4.60;99.90
61255;DHT22;47128;47.530;8.584;2022-12-05T04:43:34;4.50;99.90
61255;DHT22;47128;47.530;8.584;2022-12-05T04:46:01;4.50;99.90
61255;DHT22;47128;47.530;8.584;2022-12-05T04:48:28;4.50;99.90
61255;DHT22;47128;47.530;8.584;2022-12-05T04:50:55;4.50;99.90
61255;DHT22;47128;47.530;8.584;2022-12-05T04:53:22;4.50;99.90
61255;DHT22;47128;47.530;8.584;2022-12-05T04:55:49;4.50;99.90
61255;DHT22;47128;47.530;8.584;2022-12-05T05:00:46;4.50;99.90
61255;DHT22;47128;47.530;8.584;2022-12-05T05:03:17;4.50;99.90
61255;DHT22;47128;47.530;8.584;2022-12-05T05:05:46;4.50;99.90
61255;DHT22;47128;47.530;8.584;2022-12-05T05:08:20;4.50;99.90
61255;DHT22;47128;47.530;8.584;2022-12-05T05:10:51;4.50;99.90
61255;DHT22;47128;47.530;8.584;2022-12-05T05:13:19;4.50;99.90
61255;DHT22;47128;47.530;8.584;2022-12-05T05:15:44;4.50;99.90
61255;DHT22;47128;47.530;8.584;2022-12-05T05:18:10;4.40;99.90
61255;DHT22;47128;47.530;8.584;2022-12-05T05:20:35;4.50;99.90
61255;DHT22;47128;47.530;8.584;2022-12-05T05:23:00;4.40;99.90
61255;DHT22;47128;47.530;8.584;2022-12-05T05:25:26;4.40;99.90
61255;DHT22;47128;47.530;8.584;2022-12-05T05:27:52;4.50;99.90
61255;DHT22;47128;47.530;8.584;2022-12-05T05:30:18;4.50;99.90
61255;DHT22;47128;47.530;8.584;2022-12-05T05:32:44;4.50;99.90
61255;DHT22;47128;47.530;8.584;2022-12-05T05:35:10;4.50;99.90
61255;DHT22;47128;47.530;8.584;2022-12-05T05:37:36;4.50;99.90
61255;DHT22;47128;47.530;8.584;2022-12-05T05:40:02;4.50;99.90
61255;DHT22;47128;47.530;8.584;2022-12-05T05:42:27;4.50;99.90
61255;DHT22;47128;47.530;8.584;2022-12-05T05:44:53;4.50;99.90
61255;DHT22;47128;47.530;8.584;2022-12-05T05:47:18;4.50;99.90
61255;DHT22;47128;47.530;8.584;2022-12-05T05:49:44;4.50;99.90
61255;DHT22;47128;47.530;8.584;2022-12-05T05:52:09;4.50;99.90
61255;DHT22;47128;47.530;8.584;2022-12-05T05:54:35;4.40;99.90
61255;DHT22;47128;47.530;8.584;2022-12-05T05:57:00;4.40;99.90
61255;DHT22;47128;47.530;8.584;2022-12-05T05:59:26;4.40;99.90
61255;DHT22;47128;47.530;8.584;2022-12-05T06:01:51;4.50;99.90
61255;DHT22;47128;47.530;8.584;2022-12-05T06:04:17;4.50;99.90
61255;DHT22;47128;47.530;8.584;2022-12-05T06:06:42;4.50;99.90
61255;DHT22;47128;47.530;8.584;2022-12-05T06:09:08;4.50;99.90
61255;DHT22;47128;47.530;8.584;2022-12-05T06:11:33;4.50;99.90
61255;DHT22;47128;47.530;8.584;2022-12-05T06:13:59;4.50;99.90
61255;DHT22;47128;47.530;8.584;2022-12-05T06:16:27;4.40;99.90
61255;DHT22;47128;47.530;8.584;2022-12-05T06:18:53;4.40;99.90
61255;DHT22;47128;47.530;8.584;2022-12-05T06:21:19;4.50;99.90
61255;DHT22;47128;47.530;8.584;2022-12-05T06:23:44;4.50;99.90
61255;DHT22;47128;47.530;8.584;2022-12-05T06:26:11;4.60;99.90
61255;DHT22;47128;47.530;8.584;2022-12-05T06:28:37;4.70;99.90
61255;DHT22;47128;47.530;8.584;2022-12-05T06:31:07;4.70;99.90
61255;DHT22;47128;47.530;8.584;2022-12-05T06:33:33;4.70;99.90
61255;DHT22;47128;47.530;8.584;2022-12-05T06:36:06;4.70;99.90
61255;DHT22;47128;47.530;8.584;2022-12-05T06:38:31;4.70;99.90
61255;DHT22;47128;47.530;8.584;2022-12-05T06:40:57;4.70;99.90
61255;DHT22;47128;47.530;8.584;2022-12-05T06:43:23;4.70;99.90
61255;DHT22;47128;47.530;8.584;2022-12-05T06:45:48;4.60;99.90
61255;DHT22;47128;47.530;8.584;2022-12-05T06:48:17;4.60;99.90
61255;DHT22;47128;47.530;8.584;2022-12-05T06:50:49;4.50;99.90
61255;DHT22;47128;47.530;8.584;2022-12-05T06:53:15;4.60;99.90
61255;DHT22;47128;47.530;8.584;2022-12-05T06:55:41;4.50;99.90
61255;DHT22;47128;47.530;8.584;2022-12-05T06:58:06;4.50;99.90
61255;DHT22;47128;47.530;8.584;2022-12-05T07:00:32;4.50;99.90
61255;DHT22;47128;47.530;8.584;2022-12-05T07:03:16;4.60;99.90
61255;DHT22;47128;47.530;8.584;2022-12-05T07:05:41;4.60;99.90
61255;DHT22;47128;47.530;8.584;2022-12-05T07:08:08;4.60;99.90
61255;DHT22;47128;47.530;8.584;2022-12-05T07:10:34;4.70;99.90
61255;DHT22;47128;47.530;8.584;2022-12-05T07:13:05;4.70;99.90
61255;DHT22;47128;47.530;8.584;2022-12-05T07:15:31;4.70;99.90
61255;DHT22;47128;47.530;8.584;2022-12-05T07:17:59;4.70;99.90
61255;DHT22;47128;47.530;8.584;2022-12-05T07:20:24;4.60;99.90
61255;DHT22;47128;47.530;8.584;2022-12-05T07:22:51;4.60;99.90
61255;DHT22;47128;47.530;8.584;2022-12-05T07:27:54;4.60;99.90
61255;DHT22;47128;47.530;8.584;2022-12-05T07:30:20;4.60;99.90
61255;DHT22;47128;47.530;8.584;2022-12-05T07:32:46;4.60;99.90
61255;DHT22;47128;47.530;8.584;2022-12-05T07:35:12;4.60;99.90
61255;DHT22;47128;47.530;8.584;2022-12-05T07:37:37;4.60;99.90
61255;DHT22;47128;47.530;8.584;2022-12-05T07:40:03;4.60;99.90
61255;DHT22;47128;47.530;8.584;2022-12-05T07:42:31;4.70;99.90
61255;DHT22;47128;47.530;8.584;2022-12-05T07:44:57;4.60;99.90
61255;DHT22;47128;47.530;8.584;2022-12-05T07:47:24;4.60;99.90
61255;DHT22;47128;47.530;8.584;2022-12-05T07:49:52;4.60;99.90
61255;DHT22;47128;47.530;8.584;2022-12-05T07:52:20;4.70;99.90
61255;DHT22;47128;47.530;8.584;2022-12-05T07:54:45;4.60;99.90
61255;DHT22;47128;47.530;8.584;2022-12-05T07:57:12;4.70;99.90
61255;DHT22;47128;47.530;8.584;2022-12-05T07:59:37;4.70;99.90
61255;DHT22;47128;47.530;8.584;2022-12-05T08:02:03;4.70;99.90
61255;DHT22;47128;47.530;8.584;2022-12-05T08:04:29;4.70;99.90
61255;DHT22;47128;47.530;8.584;2022-12-05T08:06:56;4.80;99.90
61255;DHT22;47128;47.530;8.584;2022-12-05T08:09:23;4.70;99.90
61255;DHT22;47128;47.530;8.584;2022-12-05T08:11:50;4.70;99.90
61255;DHT22;47128;47.530;8.584;2022-12-05T08:14:22;4.70;99.90
61255;DHT22;47128;47.530;8.584;2022-12-05T08:16:47;4.70;99.90
61255;DHT22;47128;47.530;8.584;2022-12-05T08:19:15;4.70;99.90
61255;DHT22;47128;47.530;8.584;2022-12-05T08:21:42;4.80;99.90
61255;DHT22;47128;47.530;8.584;2022-12-05T08:24:09;4.80;99.90
61255;DHT22;47128;47.530;8.584;2022-12-05T08:26:36;4.80;99.90
61255;DHT22;47128;47.530;8.584;2022-12-05T08:29:03;4.80;99.90
61255;DHT22;47128;47.530;8.584;2022-12-05T08:31:31;4.90;99.90
61255;DHT22;47128;47.530;8.584;2022-12-05T08:34:03;4.90;99.90
61255;DHT22;47128;47.530;8.584;2022-12-05T08:36:31;4.90;99.90
61255;DHT22;47128;47.530;8.584;2022-12-05T08:39:00;4.90;99.90
61255;DHT22;47128;47.530;8.584;2022-12-05T08:41:29;4.90;99.90
61255;DHT22;47128;47.530;8.584;2022-12-05T08:44:00;4.90;99.90
61255;DHT22;47128;47.530;8.584;2022-12-05T08:46:28;5.00;99.90
61255;DHT22;47128;47.530;8.584;2022-12-05T08:48:55;5.00;99.90
61255;DHT22;47128;47.530;8.584;2022-12-05T08:51:27;5.00;99.90
61255;DHT22;47128;47.530;8.584;2022-12-05T08:53:52;5.00;99.90
61255;DHT22;47128;47.530;8.584;2022-12-05T08:56:20;5.00;99.90
61255;DHT22;47128;47.530;8.584;2022-12-05T08:58:48;5.00;99.90
61255;DHT22;47128;47.530;8.584;2022-12-05T09:01:15;5.00;99.90
61255;DHT22;47128;47.530;8.584;2022-12-05T09:03:42;5.00;99.90
61255;DHT22;47128;47.530;8.584;2022-12-05T09:06:16;5.00;99.90
61255;DHT22;47128;47.530;8.584;2022-12-05T09:08:43;5.00;99.90
61255;DHT22;47128;47.530;8.584;2022-12-05T09:11:18;5.00;99.90
61255;DHT22;47128;47.530;8.584;2022-12-05T09:13:45;5.00;99.90
61255;DHT22;47128;47.530;8.584;2022-12-05T09:16:12;5.10;99.90
61255;DHT22;47128;47.530;8.584;2022-12-05T09:18:40;5.00;99.90
61255;DHT22;47128;47.530;8.584;2022-12-05T09:21:21;5.00;99.90
61255;DHT22;47128;47.530;8.584;2022-12-05T09:23:47;5.00;99.90
61255;DHT22;47128;47.530;8.584;2022-12-05T09:26:16;5.10;99.90
61255;DHT22;47128;47.530;8.584;2022-12-05T09:28:43;5.10;99.90
61255;DHT22;47128;47.530;8.584;2022-12-05T09:31:14;5.10;99.90
61255;DHT22;47128;47.530;8.584;2022-12-05T09:33:47;5.20;99.90
61255;DHT22;47128;47.530;8.584;2022-12-05T09:36:14;5.20;99.90
61255;DHT22;47128;47.530;8.584;2022-12-05T09:38:45;5.30;99.90
61255;DHT22;47128;47.530;8.584;2022-12-05T09:51:56;5.50;99.90
61255;DHT22;47128;47.530;8.584;2022-12-05T09:54:22;5.50;99.90
61255;DHT22;47128;47.530;8.584;2022-12-05T09:56:48;5.60;99.90
61255;DHT22;47128;47.530;8.584;2022-12-05T09:59:18;5.60;99.90
61255;DHT22;47128;47.530;8.584;2022-12-05T10:07:02;5.60;99.90
61255;DHT22;47128;47.530;8.584;2022-12-05T10:12:05;5.60;99.90
61255;DHT22;47128;47.530;8.584;2022-12-05T10:17:33;5.60;99.90
61255;DHT22;47128;47.530;8.584;2022-12-05T10:23:07;5.60;99.90
61255;DHT22;47128;47.530;8.584;2022-12-05T10:25:37;5.70;99.90
61255;DHT22;47128;47.530;8.584;2022-12-05T10:30:50;5.80;99.90
61255;DHT22;47128;47.530;8.584;2022-12-05T10:33:20;5.70;99.90
61255;DHT22;47128;47.530;8.584;2022-12-05T10:35:46;5.70;99.90
61255;DHT22;47128;47.530;8.584;2022-12-05T10:38:17;5.90;99.90
61255;DHT22;47128;47.530;8.584;2022-12-05T10:40:49;5.90;99.90
61255;DHT22;47128;47.530;8.584;2022-12-05T10:46:22;6.00;99.90
61255;DHT22;47128;47.530;8.584;2022-12-05T10:48:50;6.00;99.90
61255;DHT22;47128;47.530;8.584;2022-12-05T10:51:17;6.10;99.90
61255;DHT22;47128;47.530;8.584;2022-12-05T10:53:48;6.10;99.90
61255;DHT22;47128;47.530;8.584;2022-12-05T10:58:59;6.20;99.90
61255;DHT22;47128;47.530;8.584;2022-12-05T11:01:26;6.20;99.90
61255;DHT22;47128;47.530;8.584;2022-12-05T11:03:57;6.10;99.90
61255;DHT22;47128;47.530;8.584;2022-12-05T11:06:23;6.20;99.90
61255;DHT22;47128;47.530;8.584;2022-12-05T11:08:54;6.20;99.90
61255;DHT22;47128;47.530;8.584;2022-12-05T11:11:27;6.20;99.90
61255;DHT22;47128;47.530;8.584;2022-12-05T11:14:23;6.30;99.90
61255;DHT22;47128;47.530;8.584;2022-12-05T11:16:53;6.30;99.90
61255;DHT22;47128;47.530;8.584;2022-12-05T11:21:49;6.40;99.90
61255;DHT22;47128;47.530;8.584;2022-12-05T11:26:53;6.50;99.90
61255;DHT22;47128;47.530;8.584;2022-12-05T11:29:37;6.50;99.90
61255;DHT22;47128;47.530;8.584;2022-12-05T11:32:15;6.60;99.90
61255;DHT22;47128;47.530;8.584;2022-12-05T11:34:45;6.70;99.90
61255;DHT22;47128;47.530;8.584;2022-12-05T11:37:20;6.80;99.90
61255;DHT22;47128;47.530;8.584;2022-12-05T11:39:47;6.80;99.90
61255;DHT22;47128;47.530;8.584;2022-12-05T11:50:35;7.30;99.90
61255;DHT22;47128;47.530;8.584;2022-12-05T11:58:33;7.30;99.90
61255;DHT22;47128;47.530;8.584;2022-12-05T12:12:11;7.10;99.90
61255;DHT22;47128;47.530;8.584;2022-12-05T12:14:58;7.10;99.90
61255;DHT22;47128;47.530;8.584;2022-12-05T12:18:30;7.00;99.90
61255;DHT22;47128;47.530;8.584;2022-12-05T12:23:29;7.00;99.90
61255;DHT22;47128;47.530;8.584;2022-12-05T12:34:12;7.10;99.90
61255;DHT22;47128;47.530;8.584;2022-12-05T12:36:46;7.10;99.90
61255;DHT22;47128;47.530;8.584;2022-12-05T12:39:18;7.20;99.90
61255;DHT22;47128;47.530;8.584;2022-12-05T12:47:14;7.40;99.90
61255;DHT22;47128;47.530;8.584;2022-12-05T12:55:35;7.70;99.90
61255;DHT22;47128;47.530;8.584;2022-12-05T12:58:08;7.70;99.90
61255;DHT22;47128;47.530;8.584;2022-12-05T13:04:26;7.60;99.90
61255;DHT22;47128;47.530;8.584;2022-12-05T13:06:40;7.50;99.90
61255;DHT22;47128;47.530;8.584;2022-12-05T13:09:15;7.50;99.90
61255;DHT22;47128;47.530;8.584;2022-12-05T13:11:43;7.60;99.90
61255;DHT22;47128;47.530;8.584;2022-12-05T13:14:11;7.60;99.90
61255;DHT22;47128;47.530;8.584;2022-12-05T13:16:39;7.60;99.90
61255;DHT22;47128;47.530;8.584;2022-12-05T13:19:22;7.70;99.90
61255;DHT22;47128;47.530;8.584;2022-12-05T13:21:48;7.70;99.90
61255;DHT22;47128;47.530;8.584;2022-12-05T13:24:14;7.80;99.90
61255;DHT22;47128;47.530;8.584;2022-12-05T13:26:45;7.60;99.90
61255;DHT22;47128;47.530;8.584;2022-12-05T13:29:18;7.60;99.90
61255;DHT22;47128;47.530;8.584;2022-12-05T13:31:45;7.60;99.90
61255;DHT22;47128;47.530;8.584;2022-12-05T13:37:00;7.50;99.90
61255;DHT22;47128;47.530;8.584;2022-12-05T13:39:52;7.40;99.90
61255;DHT22;47128;47.530;8.584;2022-12-05T13:42:41;7.40;99.90
61255;DHT22;47128;47.530;8.584;2022-12-05T13:45:14;7.40;99.90
61255;DHT22;47128;47.530;8.584;2022-12-05T13:47:53;7.40;99.90
61255;DHT22;47128;47.530;8.584;2022-12-05T13:53:05;7.30;99.90
61255;DHT22;47128;47.530;8.584;2022-12-05T13:55:56;7.20;99.90
61255;DHT22;47128;47.530;8.584;2022-12-05T14:05:53;7.10;99.90
61255;DHT22;47128;47.530;8.584;2022-12-05T14:11:10;7.10;99.90
61255;DHT22;47128;47.530;8.584;2022-12-05T14:13:40;7.10;99.90
61255;DHT22;47128;47.530;8.584;2022-12-05T14:19:02;7.10;99.90
61255;DHT22;47128;47.530;8.584;2022-12-05T14:26:40;6.90;99.90
61255;DHT22;47128;47.530;8.584;2022-12-05T14:31:46;6.90;99.90
61255;DHT22;47128;47.530;8.584;2022-12-05T14:34:16;6.90;99.90
61255;DHT22;47128;47.530;8.584;2022-12-05T14:36:52;6.80;99.90
61255;DHT22;47128;47.530;8.584;2022-12-05T14:39:27;6.80;99.90
61255;DHT22;47128;47.530;8.584;2022-12-05T14:41:57;6.90;99.90
61255;DHT22;47128;47.530;8.584;2022-12-05T14:44:27;6.90;99.90
61255;DHT22;47128;47.530;8.584;2022-12-05T14:46:58;6.80;99.90
61255;DHT22;47128;47.530;8.584;2022-12-05T14:52:17;6.80;99.90
61255;DHT22;47128;47.530;8.584;2022-12-05T14:54:45;6.70;99.90
61255;DHT22;47128;47.530;8.584;2022-12-05T14:57:12;6.80;99.90
61255;DHT22;47128;47.530;8.584;2022-12-05T14:59:53;6.70;99.90
61255;DHT22;47128;47.530;8.584;2022-12-05T15:02:27;6.60;99.90
61255;DHT22;47128;47.530;8.584;2022-12-05T15:07:22;6.60;99.90
61255;DHT22;47128;47.530;8.584;2022-12-05T15:10:04;6.50;99.90
61255;DHT22;47128;47.530;8.584;2022-12-05T15:15:14;6.50;99.90
61255;DHT22;47128;47.530;8.584;2022-12-05T15:17:49;6.40;99.90
61255;DHT22;47128;47.530;8.584;2022-12-05T15:20:20;6.40;99.90
61255;DHT22;47128;47.530;8.584;2022-12-05T15:22:47;6.30;99.90
61255;DHT22;47128;47.530;8.584;2022-12-05T15:25:34;6.30;99.90
61255;DHT22;47128;47.530;8.584;2022-12-05T15:28:03;6.30;99.90
61255;DHT22;47128;47.530;8.584;2022-12-05T15:30:29;6.20;99.90
61255;DHT22;47128;47.530;8.584;2022-12-05T15:32:56;6.20;99.90
61255;DHT22;47128;47.530;8.584;2022-12-05T15:35:23;6.20;99.90
61255;DHT22;47128;47.530;8.584;2022-12-05T15:37:58;6.10;99.90
61255;DHT22;47128;47.530;8.584;2022-12-05T15:40:31;6.10;99.90
61255;DHT22;47128;47.530;8.584;2022-12-05T15:43:02;6.10;99.90
61255;DHT22;47128;47.530;8.584;2022-12-05T15:45:43;6.10;99.90
61255;DHT22;47128;47.530;8.584;2022-12-05T15:48:11;6.00;99.90
61255;DHT22;47128;47.530;8.584;2022-12-05T15:50:44;6.00;99.90
61255;DHT22;47128;47.530;8.584;2022-12-05T15:53:28;6.00;99.90
61255;DHT22;47128;47.530;8.584;2022-12-05T15:56:19;6.00;99.90
61255;DHT22;47128;47.530;8.584;2022-12-05T15:58:46;6.00;99.90
61255;DHT22;47128;47.530;8.584;2022-12-05T16:03:51;6.00;99.90
61255;DHT22;47128;47.530;8.584;2022-12-05T16:06:24;6.00;99.90
61255;DHT22;47128;47.530;8.584;2022-12-05T16:08:55;6.00;99.90
61255;DHT22;47128;47.530;8.584;2022-12-05T16:11:24;6.00;99.90
61255;DHT22;47128;47.530;8.584;2022-12-05T16:13:52;5.90;99.90
61255;DHT22;47128;47.530;8.584;2022-12-05T16:16:20;5.90;99.90
61255;DHT22;47128;47.530;8.584;2022-12-05T16:18:51;5.90;99.90
61255;DHT22;47128;47.530;8.584;2022-12-05T16:21:27;5.90;99.90
61255;DHT22;47128;47.530;8.584;2022-12-05T16:26:39;6.00;99.90
61255;DHT22;47128;47.530;8.584;2022-12-05T16:29:05;6.00;99.90
61255;DHT22;47128;47.530;8.584;2022-12-05T16:31:33;6.00;99.90
61255;DHT22;47128;47.530;8.584;2022-12-05T16:34:06;5.90;99.90
61255;DHT22;47128;47.530;8.584;2022-12-05T16:36:32;5.90;99.90
61255;DHT22;47128;47.530;8.584;2022-12-05T16:39:05;5.90;99.90
61255;DHT22;47128;47.530;8.584;2022-12-05T16:41:34;5.90;99.90
61255;DHT22;47128;47.530;8.584;2022-12-05T16:44:00;5.80;99.90
61255;DHT22;47128;47.530;8.584;2022-12-05T16:46:46;5.80;99.90
61255;DHT22;47128;47.530;8.584;2022-12-05T16:49:18;5.70;99.90
61255;DHT22;47128;47.530;8.584;2022-12-05T16:51:45;5.70;99.90
61255;DHT22;47128;47.530;8.584;2022-12-05T16:54:18;5.70;99.90
61255;DHT22;47128;47.530;8.584;2022-12-05T16:56:43;5.60;99.90
61255;DHT22;47128;47.530;8.584;2022-12-05T16:59:12;5.60;99.90
61255;DHT22;47128;47.530;8.584;2022-12-05T17:01:43;5.60;99.90
61255;DHT22;47128;47.530;8.584;2022-12-05T17:04:09;5.60;99.90
61255;DHT22;47128;47.530;8.584;2022-12-05T17:06:35;5.70;99.90
61255;DHT22;47128;47.530;8.584;2022-12-05T17:09:00;5.60;99.90
61255;DHT22;47128;47.530;8.584;2022-12-05T17:11:27;5.60;99.90
61255;DHT22;47128;47.530;8.584;2022-12-05T17:13:53;5.60;99.90
61255;DHT22;47128;47.530;8.584;2022-12-05T17:16:20;5.60;99.90
61255;DHT22;47128;47.530;8.584;2022-12-05T17:18:45;5.60;99.90
61255;DHT22;47128;47.530;8.584;2022-12-05T17:21:14;5.50;99.90
61255;DHT22;47128;47.530;8.584;2022-12-05T17:23:41;5.50;99.90
61255;DHT22;47128;47.530;8.584;2022-12-05T17:26:07;5.50;99.90
61255;DHT22;47128;47.530;8.584;2022-12-05T17:28:33;5.60;99.90
61255;DHT22;47128;47.530;8.584;2022-12-05T17:30:59;5.50;99.90
61255;DHT22;47128;47.530;8.584;2022-12-05T17:33:24;5.60;99.90
61255;DHT22;47128;47.530;8.584;2022-12-05T17:35:49;5.60;99.90
61255;DHT22;47128;47.530;8.584;2022-12-05T17:38:16;5.60;99.90
61255;DHT22;47128;47.530;8.584;2022-12-05T17:40:41;5.60;99.90
61255;DHT22;47128;47.530;8.584;2022-12-05T17:43:08;5.60;99.90
61255;DHT22;47128;47.530;8.584;2022-12-05T17:45:34;5.60;99.90
61255;DHT22;47128;47.530;8.584;2022-12-05T17:47:59;5.70;99.90
61255;DHT22;47128;47.530;8.584;2022-12-05T17:50:25;5.60;99.90
61255;DHT22;47128;47.530;8.584;2022-12-05T17:52:53;5.60;99.90
61255;DHT22;47128;47.530;8.584;2022-12-05T17:55:21;5.60;99.90
61255;DHT22;47128;47.530;8.584;2022-12-05T17:57:47;5.60;99.90
61255;DHT22;47128;47.530;8.584;2022-12-05T18:00:13;5.70;99.90
61255;DHT22;47128;47.530;8.584;2022-12-05T18:02:39;5.70;99.90
61255;DHT22;47128;47.530;8.584;2022-12-05T18:05:05;5.60;99.90
61255;DHT22;47128;47.530;8.584;2022-12-05T18:07:31;5.60;99.90
61255;DHT22;47128;47.530;8.584;2022-12-05T18:09:56;5.50;99.90
61255;DHT22;47128;47.530;8.584;2022-12-05T18:12:22;5.50;99.90
61255;DHT22;47128;47.530;8.584;2022-12-05T18:14:47;5.50;99.90
61255;DHT22;47128;47.530;8.584;2022-12-05T18:17:13;5.50;99.90
61255;DHT22;47128;47.530;8.584;2022-12-05T18:19:38;5.60;99.90
61255;DHT22;47128;47.530;8.584;2022-12-05T18:22:04;5.50;99.90
61255;DHT22;47128;47.530;8.584;2022-12-05T18:24:29;5.50;99.90
61255;DHT22;47128;47.530;8.584;2022-12-05T18:26:55;5.50;99.90
61255;DHT22;47128;47.530;8.584;2022-12-05T18:29:21;5.50;99.90
61255;DHT22;47128;47.530;8.584;2022-12-05T18:31:46;5.50;99.90
61255;DHT22;47128;47.530;8.584;2022-12-05T18:34:12;5.50;99.90
61255;DHT22;47128;47.530;8.584;2022-12-05T18:36:38;5.50;99.90
61255;DHT22;47128;47.530;8.584;2022-12-05T18:39:03;5.50;99.90